Time,TemperatureF,DewpointF,PressureIn,WindDirection,WindDirectionDegrees,WindSpeedMPH,WindSpeedGustMPH,Humidity,HourlyPrecipIn,Conditions,Clouds,dailyrainin,SoftwareType,DateUTC
2013-05-20 00:03:00,46.2,37.3,28.41,WSW,248,0.0,0.9,71,0.00,,---,0.00,VWS V14.01,2013-05-20 07:03:00,
2013-05-20 00:08:00,46.2,37.7,28.41,West,270,0.0,0.0,72,0.00,,---,0.00,VWS V14.01,2013-05-20 07:08:00,
2013-05-20 00:13:00,45.9,37.0,28.41,West,270,0.0,0.0,71,0.00,,---,0.00,VWS V14.01,2013-05-20 07:13:00,
2013-05-20 00:18:00,45.7,36.8,28.41,WSW,248,0.0,0.0,71,0.00,,---,0.00,VWS V14.01,2013-05-20 07:18:00,
2013-05-20 00:23:00,45.5,37.4,28.41,NE,45,0.0,0.0,73,0.00,,---,0.00,VWS V14.01,2013-05-20 07:23:00,
2013-05-20 00:28:00,45.1,37.0,28.41,West,270,0.0,0.0,73,0.00,,---,0.00,VWS V14.01,2013-05-20 07:28:00,
2013-05-20 00:33:00,45.1,37.0,28.41,West,270,0.0,0.0,73,0.00,,---,0.00,VWS V14.01,2013-05-20 07:33:00,
2013-05-20 00:38:00,44.6,36.5,28.41,West,270,0.0,0.0,73,0.00,,---,0.00,VWS V14.01,2013-05-20 07:38:00,
2013-05-20 00:43:00,44.6,36.5,28.41,West,270,0.0,0.0,73,0.00,,---,0.00,VWS V14.01,2013-05-20 07:43:00,
2013-05-20 00:48:00,44.2,36.5,28.41,West,270,0.0,0.0,74,0.00,,---,0.00,VWS V14.01,2013-05-20 07:48:00,
2013-05-20 00:53:00,43.9,36.1,28.41,West,270,0.0,0.0,74,0.00,,---,0.00,VWS V14.01,2013-05-20 07:53:00,
2013-05-20 00:58:00,43.5,35.8,28.41,NW,315,0.0,0.0,74,0.00,,---,0.00,VWS V14.01,2013-05-20 07:58:00,
2013-05-20 01:03:00,43.5,35.8,28.41,WNW,292,0.0,0.0,74,0.00,,---,0.00,VWS V14.01,2013-05-20 08:03:00,
2013-05-20 01:08:00,43.3,36.0,28.41,West,270,0.0,0.0,75,0.00,,---,0.00,VWS V14.01,2013-05-20 08:08:00,
2013-05-20 01:13:00,43.2,35.8,28.41,WNW,292,0.0,0.0,75,0.00,,---,0.00,VWS V14.01,2013-05-20 08:13:00,
2013-05-20 01:18:00,43.2,35.8,28.41,West,270,0.0,0.0,75,0.00,,---,0.00,VWS V14.01,2013-05-20 08:18:00,
2013-05-20 01:23:00,42.8,35.8,28.41,West,270,0.0,0.0,76,0.00,,---,0.00,VWS V14.01,2013-05-20 08:23:00,
2013-05-20 01:28:00,42.4,35.4,28.41,West,270,0.0,0.0,76,0.00,,---,0.00,VWS V14.01,2013-05-20 08:28:00,
2013-05-20 01:33:00,42.6,35.6,28.41,WNW,292,2.2,2.2,76,0.00,,---,0.00,VWS V14.01,2013-05-20 08:33:00,
2013-05-20 01:38:00,42.6,35.9,28.41,West,270,0.0,0.0,77,0.00,,---,0.00,VWS V14.01,2013-05-20 08:38:00,
2013-05-20 01:43:00,42.4,35.8,28.44,NNW,338,0.0,0.0,77,0.00,,---,0.00,VWS V14.01,2013-05-20 08:43:00,
2013-05-20 01:48:00,42.1,35.4,28.44,NNW,338,0.0,0.0,77,0.00,,---,0.00,VWS V14.01,2013-05-20 08:48:00,
2013-05-20 01:53:00,42.1,35.4,28.44,West,270,0.0,0.0,77,0.00,,---,0.00,VWS V14.01,2013-05-20 08:53:00,
2013-05-20 01:58:00,42.1,35.7,28.44,WNW,292,0.0,0.0,78,0.00,,---,0.00,VWS V14.01,2013-05-20 08:58:00,
2013-05-20 02:03:00,41.7,35.4,28.44,WNW,292,0.0,0.0,78,0.00,,---,0.00,VWS V14.01,2013-05-20 09:03:00,
2013-05-20 02:08:00,41.7,35.4,28.44,WNW,292,0.0,0.0,78,0.00,,---,0.00,VWS V14.01,2013-05-20 09:08:00,
2013-05-20 02:14:00,41.5,35.2,28.41,WNW,292,0.0,0.0,78,0.00,,---,0.00,VWS V14.01,2013-05-20 09:14:00,
2013-05-20 02:19:00,41.5,35.2,28.41,West,270,0.0,0.0,78,0.00,,---,0.00,VWS V14.01,2013-05-20 09:19:00,
2013-05-20 02:24:00,41.4,35.3,28.41,West,270,0.0,0.0,79,0.00,,---,0.00,VWS V14.01,2013-05-20 09:24:00,
2013-05-20 02:29:00,41.2,35.2,28.41,NE,45,0.0,0.0,79,0.00,,---,0.00,VWS V14.01,2013-05-20 09:29:00,
2013-05-20 02:34:00,41.2,35.5,28.41,WNW,292,0.0,0.0,80,0.00,,---,0.00,VWS V14.01,2013-05-20 09:34:00,
2013-05-20 02:39:00,41.2,35.5,28.41,WNW,292,0.0,0.0,80,0.00,,---,0.00,VWS V14.01,2013-05-20 09:39:00,
2013-05-20 02:44:00,41.2,35.5,28.41,NNE,22,0.9,0.9,80,0.00,,---,0.00,VWS V14.01,2013-05-20 09:44:00,
2013-05-20 02:49:00,41.2,35.8,28.41,WSW,248,0.0,0.0,81,0.00,,---,0.00,VWS V14.01,2013-05-20 09:49:00,
2013-05-20 02:54:00,41.2,35.8,28.41,WSW,248,0.0,0.0,81,0.00,,---,0.00,VWS V14.01,2013-05-20 09:54:00,
2013-05-20 02:59:00,41.0,35.6,28.41,WSW,248,0.0,0.0,81,0.00,,---,0.00,VWS V14.01,2013-05-20 09:59:00,
2013-05-20 03:04:00,41.0,35.6,28.41,WSW,248,0.0,0.0,81,0.00,,---,0.00,VWS V14.01,2013-05-20 10:04:00,
2013-05-20 03:09:00,41.0,35.9,28.41,WSW,248,0.0,0.0,82,0.00,,---,0.00,VWS V14.01,2013-05-20 10:09:00,
2013-05-20 03:14:00,40.6,35.6,28.41,WSW,248,0.0,0.0,82,0.00,,---,0.00,VWS V14.01,2013-05-20 10:14:00,
2013-05-20 03:19:00,40.6,35.6,28.41,WSW,248,0.0,0.0,82,0.00,,---,0.00,VWS V14.01,2013-05-20 10:19:00,
2013-05-20 03:24:00,40.5,35.4,28.41,WSW,248,0.0,0.0,82,0.00,,---,0.00,VWS V14.01,2013-05-20 10:24:00,
2013-05-20 03:29:00,40.5,35.4,28.41,WSW,248,0.0,0.0,82,0.00,,---,0.00,VWS V14.01,2013-05-20 10:29:00,
2013-05-20 03:34:00,40.5,35.7,28.41,NNW,338,0.0,0.0,83,0.00,,---,0.00,VWS V14.01,2013-05-20 10:34:00,
2013-05-20 03:39:00,40.3,35.5,28.41,NNW,338,0.0,0.0,83,0.00,,---,0.00,VWS V14.01,2013-05-20 10:39:00,
2013-05-20 03:44:00,39.9,35.2,28.41,NNW,338,0.0,0.0,83,0.00,,---,0.00,VWS V14.01,2013-05-20 10:44:00,
2013-05-20 03:49:00,39.9,35.5,28.41,WNW,292,0.0,0.0,84,0.00,,---,0.00,VWS V14.01,2013-05-20 10:49:00,
2013-05-20 03:54:00,39.7,35.3,28.41,WNW,292,0.0,0.0,84,0.00,,---,0.00,VWS V14.01,2013-05-20 10:54:00,
2013-05-20 03:59:00,39.7,35.3,28.41,WNW,292,0.0,0.0,84,0.00,,---,0.00,VWS V14.01,2013-05-20 10:59:00,
2013-05-20 04:04:00,39.4,35.0,28.41,WNW,292,0.0,0.0,84,0.00,,---,0.00,VWS V14.01,2013-05-20 11:04:00,
2013-05-20 04:09:00,39.4,35.0,28.41,WNW,292,0.0,0.0,84,0.00,,---,0.00,VWS V14.01,2013-05-20 11:09:00,
2013-05-20 04:14:00,39.4,35.0,28.41,WNW,292,0.0,0.0,84,0.00,,---,0.00,VWS V14.01,2013-05-20 11:14:00,
2013-05-20 04:19:00,39.4,35.0,28.41,WNW,292,0.0,0.0,84,0.00,,---,0.00,VWS V14.01,2013-05-20 11:19:00,
2013-05-20 04:24:00,39.2,35.1,28.41,WNW,292,0.0,0.0,85,0.00,,---,0.00,VWS V14.01,2013-05-20 11:24:00,
2013-05-20 04:29:00,39.2,35.1,28.41,WNW,292,0.0,0.0,85,0.00,,---,0.00,VWS V14.01,2013-05-20 11:29:00,
2013-05-20 04:34:00,39.2,34.8,28.41,NNW,338,0.0,0.0,84,0.00,,---,0.00,VWS V14.01,2013-05-20 11:34:00,
2013-05-20 04:39:00,39.0,35.2,28.41,NW,315,0.0,0.0,86,0.00,,---,0.00,VWS V14.01,2013-05-20 11:39:00,
2013-05-20 04:45:00,38.8,35.0,28.41,NNW,338,0.0,0.0,86,0.00,,---,0.00,VWS V14.01,2013-05-20 11:45:00,
2013-05-20 04:50:00,38.7,34.8,28.41,NNW,338,0.0,0.0,86,0.00,,---,0.00,VWS V14.01,2013-05-20 11:50:00,
2013-05-20 04:55:00,38.7,34.8,28.41,NNW,338,0.0,0.0,86,0.00,,---,0.00,VWS V14.01,2013-05-20 11:55:00,
2013-05-20 05:00:00,38.5,34.7,28.41,NNW,338,0.0,0.0,86,0.00,,---,0.00,VWS V14.01,2013-05-20 12:00:00,
2013-05-20 05:05:00,38.5,34.7,28.41,NNW,338,0.0,0.0,86,0.00,,---,0.00,VWS V14.01,2013-05-20 12:05:00,
2013-05-20 05:10:00,38.3,34.5,28.41,NNW,338,0.0,0.0,86,0.00,,---,0.00,VWS V14.01,2013-05-20 12:10:00,
2013-05-20 05:15:00,38.1,34.3,28.41,NNW,338,0.0,0.0,86,0.00,,---,0.00,VWS V14.01,2013-05-20 12:15:00,
2013-05-20 05:20:00,38.1,34.3,28.41,NNW,338,0.0,0.0,86,0.00,,---,0.00,VWS V14.01,2013-05-20 12:20:00,
2013-05-20 05:25:00,38.1,34.6,28.41,NNW,338,0.0,0.0,87,0.00,,---,0.00,VWS V14.01,2013-05-20 12:25:00,
2013-05-20 05:30:00,38.1,34.6,28.44,NNW,338,0.0,0.0,87,0.00,,---,0.00,VWS V14.01,2013-05-20 12:30:00,
2013-05-20 05:35:00,38.1,34.6,28.44,NNW,338,0.0,0.0,87,0.00,,---,0.00,VWS V14.01,2013-05-20 12:35:00,
2013-05-20 05:40:00,38.1,34.6,28.44,NNW,338,0.0,0.0,87,0.00,,---,0.00,VWS V14.01,2013-05-20 12:40:00,
2013-05-20 05:45:00,38.1,34.6,28.41,NNW,338,0.0,0.0,87,0.00,,---,0.00,VWS V14.01,2013-05-20 12:45:00,
2013-05-20 05:50:00,38.3,34.8,28.41,NNW,338,0.0,0.0,87,0.00,,---,0.00,VWS V14.01,2013-05-20 12:50:00,
2013-05-20 05:55:00,38.3,34.8,28.41,NNW,338,0.0,0.0,87,0.00,,---,0.00,VWS V14.01,2013-05-20 12:55:00,
2013-05-20 06:00:00,38.5,35.2,28.44,NNW,338,0.0,0.0,88,0.00,,---,0.00,VWS V14.01,2013-05-20 13:00:00,
2013-05-20 06:05:00,38.5,35.2,28.44,NNW,338,0.0,0.0,88,0.00,,---,0.00,VWS V14.01,2013-05-20 13:05:00,
2013-05-20 06:10:00,38.7,35.4,28.44,NNW,338,0.0,0.0,88,0.00,,---,0.00,VWS V14.01,2013-05-20 13:10:00,
2013-05-20 06:15:00,38.7,35.4,28.41,NNW,338,0.0,0.0,88,0.00,,---,0.00,VWS V14.01,2013-05-20 13:15:00,
2013-05-20 06:20:00,38.7,35.4,28.41,NNW,338,0.0,0.0,88,0.00,,---,0.00,VWS V14.01,2013-05-20 13:20:00,
2013-05-20 06:25:00,38.8,35.6,28.41,NNW,338,0.0,0.0,88,0.00,,---,0.00,VWS V14.01,2013-05-20 13:25:00,
2013-05-20 06:30:00,39.0,35.8,28.41,NNW,338,0.0,0.0,88,0.00,,---,0.00,VWS V14.01,2013-05-20 13:30:00,
2013-05-20 06:35:00,39.2,36.0,28.41,NNW,338,0.0,0.0,88,0.00,,---,0.00,VWS V14.01,2013-05-20 13:35:00,
2013-05-20 06:40:00,39.2,36.0,28.41,NNW,338,0.0,0.0,88,0.00,,---,0.00,VWS V14.01,2013-05-20 13:40:00,
2013-05-20 06:45:00,39.4,36.1,28.41,NNW,338,0.0,0.0,88,0.00,,---,0.00,VWS V14.01,2013-05-20 13:45:00,
2013-05-20 06:50:00,39.6,36.3,28.41,NNW,338,0.0,0.0,88,0.00,,---,0.00,VWS V14.01,2013-05-20 13:50:00,
2013-05-20 06:55:00,39.7,36.5,28.41,NNW,338,0.0,0.0,88,0.00,,---,0.00,VWS V14.01,2013-05-20 13:55:00,
2013-05-20 07:00:00,41.2,38.2,28.41,NNW,338,0.0,0.0,89,0.00,,---,0.00,VWS V14.01,2013-05-20 14:00:00,
2013-05-20 07:05:00,43.3,40.6,28.41,NNW,338,0.0,0.0,90,0.00,,---,0.00,VWS V14.01,2013-05-20 14:05:00,
2013-05-20 07:10:00,44.8,41.7,28.41,North,0,0.0,0.0,89,0.00,,---,0.00,VWS V14.01,2013-05-20 14:10:00,
2013-05-20 07:15:00,46.6,43.2,28.41,North,0,0.0,0.0,88,0.00,,---,0.00,VWS V14.01,2013-05-20 14:15:00,
2013-05-20 07:20:00,47.7,43.7,28.41,North,0,0.0,0.0,86,0.00,,---,0.00,VWS V14.01,2013-05-20 14:20:00,
2013-05-20 07:25:00,48.2,43.3,28.41,North,0,0.0,0.0,83,0.00,,---,0.00,VWS V14.01,2013-05-20 14:25:00,
2013-05-20 07:30:00,48.2,42.3,28.41,North,0,0.0,0.0,80,0.00,,---,0.00,VWS V14.01,2013-05-20 14:30:00,
2013-05-20 07:35:00,48.2,41.3,28.41,North,0,0.0,0.0,77,0.00,,---,0.00,VWS V14.01,2013-05-20 14:35:00,
2013-05-20 07:40:00,48.4,41.2,28.41,North,0,0.0,0.0,76,0.00,,---,0.00,VWS V14.01,2013-05-20 14:40:00,
2013-05-20 07:45:00,48.7,41.5,28.41,North,0,0.0,0.0,76,0.00,,---,0.00,VWS V14.01,2013-05-20 14:45:00,
2013-05-20 07:50:00,50.0,42.7,28.41,North,0,0.0,0.0,76,0.00,,---,0.00,VWS V14.01,2013-05-20 14:50:00,
2013-05-20 07:55:00,51.1,43.4,28.41,NE,45,0.0,0.0,75,0.00,,---,0.00,VWS V14.01,2013-05-20 14:55:00,
2013-05-20 08:00:00,52.3,44.3,28.38,NE,45,0.0,0.0,74,0.00,,---,0.00,VWS V14.01,2013-05-20 15:00:00,
2013-05-20 08:05:00,53.1,44.3,28.38,NNW,338,0.0,0.0,72,0.00,,---,0.00,VWS V14.01,2013-05-20 15:05:00,
2013-05-20 08:10:00,54.3,42.8,28.38,East,90,0.0,2.0,65,0.00,,---,0.00,VWS V14.01,2013-05-20 15:10:00,
2013-05-20 08:15:00,54.9,42.9,28.38,ESE,112,0.0,1.1,64,0.00,,---,0.00,VWS V14.01,2013-05-20 15:15:00,
2013-05-20 08:20:00,56.7,43.4,28.38,ESE,112,0.0,1.6,61,0.00,,---,0.00,VWS V14.01,2013-05-20 15:20:00,
2013-05-20 08:25:00,58.3,43.6,28.38,East,90,1.3,1.3,58,0.00,,---,0.00,VWS V14.01,2013-05-20 15:25:00,
2013-05-20 08:30:00,59.4,42.2,28.38,NE,45,0.0,0.0,53,0.00,,---,0.00,VWS V14.01,2013-05-20 15:30:00,
2013-05-20 08:36:00,60.1,41.4,28.38,ENE,68,2.0,2.0,50,0.00,,---,0.00,VWS V14.01,2013-05-20 15:36:00,
2013-05-20 08:41:00,60.6,41.4,28.38,ENE,68,2.2,2.2,49,0.00,,---,0.00,VWS V14.01,2013-05-20 15:41:00,
2013-05-20 08:46:00,61.7,41.8,28.38,East,90,2.0,2.5,48,0.00,,---,0.00,VWS V14.01,2013-05-20 15:46:00,
2013-05-20 08:51:00,62.8,41.7,28.38,ENE,68,0.0,2.2,46,0.00,,---,0.00,VWS V14.01,2013-05-20 15:51:00,
2013-05-20 08:56:00,63.9,42.7,28.38,NNE,22,2.5,2.5,46,0.00,,---,0.00,VWS V14.01,2013-05-20 15:56:00,
2013-05-20 09:01:00,64.9,43.1,28.38,NE,45,2.5,2.5,45,0.00,,---,0.00,VWS V14.01,2013-05-20 16:01:00,
2013-05-20 09:06:00,65.3,42.2,28.38,ENE,68,2.5,2.5,43,0.00,,---,0.00,VWS V14.01,2013-05-20 16:06:00,
2013-05-20 09:11:00,66.0,42.3,28.38,ENE,68,0.9,1.3,42,0.00,,---,0.00,VWS V14.01,2013-05-20 16:11:00,
2013-05-20 09:16:00,67.1,43.3,28.38,South,180,0.0,0.0,42,0.00,,---,0.00,VWS V14.01,2013-05-20 16:16:00,
2013-05-20 09:21:00,67.5,41.7,28.38,NNE,22,1.1,2.9,39,0.00,,---,0.00,VWS V14.01,2013-05-20 16:21:00,
2013-05-20 09:26:00,66.7,40.3,28.38,ESE,112,0.0,2.2,38,0.00,,---,0.00,VWS V14.01,2013-05-20 16:26:00,
2013-05-20 09:31:00,68.5,42.0,28.35,SW,225,1.3,1.3,38,0.00,,---,0.00,VWS V14.01,2013-05-20 16:31:00,
2013-05-20 09:36:00,69.1,41.7,28.35,NNE,22,0.0,0.0,37,0.00,,---,0.00,VWS V14.01,2013-05-20 16:36:00,
2013-05-20 09:41:00,69.4,42.1,28.35,ENE,68,2.5,2.5,37,0.00,,---,0.00,VWS V14.01,2013-05-20 16:41:00,
2013-05-20 09:46:00,69.6,40.8,28.35,ENE,68,0.0,3.1,35,0.00,,---,0.00,VWS V14.01,2013-05-20 16:46:00,
2013-05-20 09:51:00,70.3,40.7,28.35,NE,45,2.7,4.3,34,0.00,,---,0.00,VWS V14.01,2013-05-20 16:51:00,
2013-05-20 09:56:00,71.1,42.0,28.35,ENE,68,1.3,2.0,35,0.00,,---,0.00,VWS V14.01,2013-05-20 16:56:00,
2013-05-20 10:01:00,70.9,41.1,28.35,ENE,68,3.1,3.8,34,0.00,,---,0.00,VWS V14.01,2013-05-20 17:01:00,
2013-05-20 10:06:00,70.7,41.0,28.35,NE,45,3.1,3.1,34,0.00,,---,0.00,VWS V14.01,2013-05-20 17:06:00,
2013-05-20 10:11:00,70.3,39.9,28.35,NE,45,3.1,4.3,33,0.00,,---,0.00,VWS V14.01,2013-05-20 17:11:00,
2013-05-20 10:16:00,70.2,39.7,28.35,SE,135,2.5,2.9,33,0.00,,---,0.00,VWS V14.01,2013-05-20 17:16:00,
2013-05-20 10:21:00,70.0,39.6,28.35,ENE,68,2.9,4.3,33,0.00,,---,0.00,VWS V14.01,2013-05-20 17:21:00,
2013-05-20 10:26:00,70.2,39.7,28.35,SSE,158,2.2,3.8,33,0.00,,---,0.00,VWS V14.01,2013-05-20 17:26:00,
2013-05-20 10:31:00,70.5,40.8,28.32,ENE,68,2.7,3.4,34,0.00,,---,0.00,VWS V14.01,2013-05-20 17:31:00,
2013-05-20 10:36:00,70.7,40.2,28.32,East,90,3.1,3.1,33,0.00,,---,0.00,VWS V14.01,2013-05-20 17:36:00,
2013-05-20 10:41:00,71.1,39.7,28.32,East,90,4.9,6.3,32,0.00,,---,0.00,VWS V14.01,2013-05-20 17:41:00,
2013-05-20 10:46:00,71.4,40.8,28.32,North,0,1.1,1.1,33,0.00,,---,0.00,VWS V14.01,2013-05-20 17:46:00,
2013-05-20 10:51:00,73.0,41.5,28.32,ENE,68,0.9,3.4,32,0.00,,---,0.00,VWS V14.01,2013-05-20 17:51:00,
2013-05-20 10:56:00,73.6,40.3,28.32,NNW,338,3.6,3.6,30,0.00,,---,0.00,VWS V14.01,2013-05-20 17:56:00,
2013-05-20 11:01:00,74.7,41.2,28.32,East,90,0.0,1.3,30,0.00,,---,0.00,VWS V14.01,2013-05-20 18:01:00,
2013-05-20 11:06:00,75.0,39.7,28.32,ENE,68,4.3,4.3,28,0.00,,---,0.00,VWS V14.01,2013-05-20 18:06:00,
2013-05-20 11:11:00,76.3,40.8,28.32,North,0,0.0,0.0,28,0.00,,---,0.00,VWS V14.01,2013-05-20 18:11:00,
2013-05-20 11:16:00,76.1,38.8,28.32,East,90,3.1,3.6,26,0.00,,---,0.00,VWS V14.01,2013-05-20 18:16:00,
2013-05-20 11:21:00,75.9,39.6,28.32,NE,45,1.3,1.6,27,0.00,,---,0.00,VWS V14.01,2013-05-20 18:21:00,
2013-05-20 11:26:00,75.4,38.2,28.32,East,90,3.6,6.0,26,0.00,,---,0.00,VWS V14.01,2013-05-20 18:26:00,
2013-05-20 11:31:00,75.4,38.2,28.32,NE,45,0.0,3.4,26,0.00,,---,0.00,VWS V14.01,2013-05-20 18:31:00,
2013-05-20 11:36:00,75.7,39.4,28.32,SSW,202,2.0,3.1,27,0.00,,---,0.00,VWS V14.01,2013-05-20 18:36:00,
2013-05-20 11:41:00,74.8,37.7,28.32,North,0,1.3,4.0,26,0.00,,---,0.00,VWS V14.01,2013-05-20 18:41:00,
2013-05-20 11:46:00,75.2,38.0,28.32,North,0,0.9,2.0,26,0.00,,---,0.00,VWS V14.01,2013-05-20 18:46:00,
2013-05-20 11:51:00,76.1,38.8,28.32,ESE,112,2.7,2.7,26,0.00,,---,0.00,VWS V14.01,2013-05-20 18:51:00,
2013-05-20 11:56:00,78.3,40.6,28.32,ESE,112,1.1,1.1,26,0.00,,---,0.00,VWS V14.01,2013-05-20 18:56:00,
2013-05-20 12:01:00,79.2,40.3,28.29,South,180,0.0,0.0,25,0.00,,---,0.00,VWS V14.01,2013-05-20 19:01:00,
2013-05-20 12:06:00,78.4,37.6,28.29,East,90,3.1,3.1,23,0.00,,---,0.00,VWS V14.01,2013-05-20 19:06:00,
2013-05-20 12:11:00,78.6,38.8,28.29,NE,45,0.0,4.0,24,0.00,,---,0.00,VWS V14.01,2013-05-20 19:11:00,
2013-05-20 12:16:00,79.0,38.1,28.29,South,180,2.0,2.0,23,0.00,,---,0.00,VWS V14.01,2013-05-20 19:16:00,
2013-05-20 12:21:00,80.2,39.1,28.29,WSW,248,0.0,2.0,23,0.00,,---,0.00,VWS V14.01,2013-05-20 19:21:00,
2013-05-20 12:26:00,80.1,37.8,28.29,ESE,112,2.7,3.8,22,0.00,,---,0.00,VWS V14.01,2013-05-20 19:26:00,
2013-05-20 12:31:00,80.2,38.0,28.29,East,90,2.2,2.2,22,0.00,,---,0.00,VWS V14.01,2013-05-20 19:31:00,
2013-05-20 12:36:00,79.9,37.7,28.29,West,270,1.6,3.1,22,0.00,,---,0.00,VWS V14.01,2013-05-20 19:36:00,
2013-05-20 12:41:00,79.0,35.8,28.29,WSW,248,2.5,2.5,21,0.00,,---,0.00,VWS V14.01,2013-05-20 19:41:00,
2013-05-20 12:46:00,79.0,36.9,28.29,ESE,112,1.1,2.5,22,0.00,,---,0.00,VWS V14.01,2013-05-20 19:46:00,
2013-05-20 12:51:00,78.6,36.6,28.29,NE,45,2.7,2.7,22,0.00,,---,0.00,VWS V14.01,2013-05-20 19:51:00,
2013-05-20 12:56:00,77.9,36.0,28.29,NNE,22,2.0,2.0,22,0.00,,---,0.00,VWS V14.01,2013-05-20 19:56:00,
2013-05-20 13:02:00,77.2,35.4,28.26,NNW,338,0.0,2.5,22,0.00,,---,0.00,VWS V14.01,2013-05-20 20:02:00,
2013-05-20 13:07:00,77.4,35.6,28.26,NNE,22,3.1,3.1,22,0.00,,---,0.00,VWS V14.01,2013-05-20 20:07:00,
2013-05-20 13:12:00,76.8,36.2,28.26,NE,45,4.0,4.0,23,0.00,,---,0.00,VWS V14.01,2013-05-20 20:12:00,
2013-05-20 13:17:00,76.8,35.1,28.26,West,270,3.4,3.6,22,0.00,,---,0.00,VWS V14.01,2013-05-20 20:17:00,
2013-05-20 13:22:00,77.4,36.7,28.26,ENE,68,2.9,3.4,23,0.00,,---,0.00,VWS V14.01,2013-05-20 20:22:00,
2013-05-20 13:27:00,77.7,37.0,28.26,ESE,112,1.1,3.1,23,0.00,,---,0.00,VWS V14.01,2013-05-20 20:27:00,
2013-05-20 13:32:00,78.8,36.8,28.26,NE,45,2.2,6.0,22,0.00,,---,0.00,VWS V14.01,2013-05-20 20:32:00,
2013-05-20 13:37:00,79.9,37.7,28.26,ESE,112,4.0,4.0,22,0.00,,---,0.00,VWS V14.01,2013-05-20 20:37:00,
2013-05-20 13:42:00,79.2,35.9,28.26,North,0,2.0,6.5,21,0.00,,---,0.00,VWS V14.01,2013-05-20 20:42:00,
2013-05-20 13:47:00,79.9,36.5,28.26,West,270,1.6,2.2,21,0.00,,---,0.00,VWS V14.01,2013-05-20 20:47:00,
2013-05-20 13:52:00,79.9,36.5,28.26,NW,315,4.5,4.9,21,0.00,,---,0.00,VWS V14.01,2013-05-20 20:52:00,
2013-05-20 13:57:00,78.6,35.5,28.26,ENE,68,5.4,5.4,21,0.00,,---,0.00,VWS V14.01,2013-05-20 20:57:00,
2013-05-20 14:02:00,77.5,34.6,28.23,WSW,248,1.3,1.3,21,0.00,,---,0.00,VWS V14.01,2013-05-20 21:02:00,
2013-05-20 14:07:00,76.5,34.8,28.23,SE,135,1.1,1.3,22,0.00,,---,0.00,VWS V14.01,2013-05-20 21:07:00,
2013-05-20 14:12:00,76.8,35.1,28.23,NNE,22,1.3,2.9,22,0.00,,---,0.00,VWS V14.01,2013-05-20 21:12:00,
2013-05-20 14:17:00,78.1,35.0,28.23,ESE,112,2.7,2.7,21,0.00,,---,0.00,VWS V14.01,2013-05-20 21:17:00,
2013-05-20 14:22:00,78.4,35.3,28.23,SSE,158,3.8,3.8,21,0.00,,---,0.00,VWS V14.01,2013-05-20 21:22:00,
2013-05-20 14:27:00,78.1,35.0,28.23,South,180,1.3,6.5,21,0.00,,---,0.00,VWS V14.01,2013-05-20 21:27:00,
2013-05-20 14:32:00,80.2,36.8,28.23,WNW,292,2.2,2.2,21,0.00,,---,0.00,VWS V14.01,2013-05-20 21:32:00,
2013-05-20 14:37:00,81.9,36.9,28.23,NNW,338,0.9,2.0,20,0.00,,---,0.00,VWS V14.01,2013-05-20 21:37:00,
2013-05-20 14:42:00,80.1,35.4,28.23,ENE,68,3.6,3.6,20,0.00,,---,0.00,VWS V14.01,2013-05-20 21:42:00,
2013-05-20 14:47:00,79.0,34.5,28.23,WNW,292,2.7,4.3,20,0.00,,---,0.00,VWS V14.01,2013-05-20 21:47:00,
2013-05-20 14:52:00,79.3,34.8,28.23,SE,135,1.1,2.2,20,0.00,,---,0.00,VWS V14.01,2013-05-20 21:52:00,
2013-05-20 14:57:00,77.5,33.3,28.23,ESE,112,0.0,2.0,20,0.00,,---,0.00,VWS V14.01,2013-05-20 21:57:00,
2013-05-20 15:02:00,79.2,34.7,28.23,West,270,5.6,5.6,20,0.00,,---,0.00,VWS V14.01,2013-05-20 22:02:00,
2013-05-20 15:07:00,76.6,33.8,28.23,ENE,68,3.4,3.4,21,0.00,,---,0.00,VWS V14.01,2013-05-20 22:07:00,
2013-05-20 15:12:00,75.6,32.9,28.23,WNW,292,0.0,0.0,21,0.00,,---,0.00,VWS V14.01,2013-05-20 22:12:00,
2013-05-20 15:17:00,74.7,33.3,28.23,South,180,2.7,2.7,22,0.00,,---,0.00,VWS V14.01,2013-05-20 22:17:00,
2013-05-20 15:22:00,75.6,34.1,28.23,SE,135,0.0,0.0,22,0.00,,---,0.00,VWS V14.01,2013-05-20 22:22:00,
2013-05-20 15:27:00,75.2,33.8,28.23,East,90,0.0,0.9,22,0.00,,---,0.00,VWS V14.01,2013-05-20 22:27:00,
2013-05-20 15:32:00,75.2,33.8,28.20,NNE,22,3.1,3.1,22,0.00,,---,0.00,VWS V14.01,2013-05-20 22:32:00,
2013-05-20 15:37:00,74.8,34.6,28.20,ENE,68,2.7,2.7,23,0.00,,---,0.00,VWS V14.01,2013-05-20 22:37:00,
2013-05-20 15:42:00,75.4,33.9,28.20,SW,225,1.6,1.6,22,0.00,,---,0.00,VWS V14.01,2013-05-20 22:42:00,
2013-05-20 15:47:00,75.7,34.2,28.20,NNW,338,0.0,1.3,22,0.00,,---,0.00,VWS V14.01,2013-05-20 22:47:00,
2013-05-20 15:52:00,75.2,33.8,28.20,NNW,338,1.1,1.1,22,0.00,,---,0.00,VWS V14.01,2013-05-20 22:52:00,
2013-05-20 15:57:00,74.1,32.9,28.20,NE,45,0.9,1.6,22,0.00,,---,0.00,VWS V14.01,2013-05-20 22:57:00,
2013-05-20 16:02:00,73.8,32.6,28.20,NE,45,0.0,0.0,22,0.00,,---,0.00,VWS V14.01,2013-05-20 23:02:00,
2013-05-20 16:07:00,74.5,34.3,28.20,NNE,22,2.9,2.9,23,0.00,,---,0.00,VWS V14.01,2013-05-20 23:07:00,
2013-05-20 16:12:00,73.6,33.5,28.20,SSW,202,0.0,0.0,23,0.00,,---,0.00,VWS V14.01,2013-05-20 23:12:00,
2013-05-20 16:17:00,74.3,35.2,28.17,ESE,112,1.6,1.6,24,0.00,,---,0.00,VWS V14.01,2013-05-20 23:17:00,
2013-05-20 16:22:00,73.2,34.3,28.17,West,270,0.0,0.9,24,0.00,,---,0.00,VWS V14.01,2013-05-20 23:22:00,
2013-05-20 16:27:00,74.1,34.0,28.17,NNE,22,2.7,4.0,23,0.00,,---,0.00,VWS V14.01,2013-05-20 23:27:00,
2013-05-20 16:32:00,74.1,34.0,28.17,WSW,248,0.0,0.0,23,0.00,,---,0.00,VWS V14.01,2013-05-20 23:32:00,
2013-05-20 16:37:00,72.7,34.9,28.17,West,270,0.0,0.0,25,0.00,,---,0.00,VWS V14.01,2013-05-20 23:37:00,
2013-05-20 16:42:00,71.6,34.0,28.17,SW,225,0.9,1.3,25,0.00,,---,0.00,VWS V14.01,2013-05-20 23:42:00,
2013-05-20 16:47:00,71.4,35.7,28.17,West,270,0.0,0.0,27,0.00,,---,0.00,VWS V14.01,2013-05-20 23:47:00,
2013-05-20 16:52:00,71.1,35.4,28.17,WSW,248,0.9,0.9,27,0.00,,---,0.00,VWS V14.01,2013-05-20 23:52:00,
2013-05-20 16:57:00,70.7,36.0,28.17,SW,225,2.0,2.0,28,0.00,,---,0.00,VWS V14.01,2013-05-20 23:57:00,
2013-05-20 17:02:00,70.7,36.0,28.14,West,270,0.0,0.0,28,0.00,,---,0.00,VWS V14.01,2013-05-21 00:02:00,
2013-05-20 17:07:00,71.1,35.4,28.14,West,270,2.2,2.2,27,0.00,,---,0.00,VWS V14.01,2013-05-21 00:07:00,
2013-05-20 17:12:00,70.7,36.0,28.14,West,270,0.0,0.0,28,0.00,,---,0.00,VWS V14.01,2013-05-21 00:12:00,
2013-05-20 17:18:00,70.2,36.5,28.14,SW,225,0.0,1.6,29,0.00,,---,0.00,VWS V14.01,2013-05-21 00:18:00,
2013-05-20 17:23:00,69.4,37.5,28.14,SW,225,0.0,0.0,31,0.00,,---,0.00,VWS V14.01,2013-05-21 00:23:00,
2013-05-20 17:28:00,68.7,37.7,28.14,West,270,0.0,0.0,32,0.00,,---,0.00,VWS V14.01,2013-05-21 00:28:00,
2013-05-20 17:33:00,68.5,37.5,28.14,West,270,2.5,2.9,32,0.00,,---,0.00,VWS V14.01,2013-05-21 00:33:00,
2013-05-20 17:38:00,68.7,36.1,28.14,SW,225,1.3,2.7,30,0.00,,---,0.00,VWS V14.01,2013-05-21 00:38:00,
2013-05-20 17:43:00,68.0,35.4,28.14,WSW,248,2.7,3.1,30,0.00,,---,0.00,VWS V14.01,2013-05-21 00:43:00,
2013-05-20 17:48:00,67.3,37.2,28.14,SW,225,0.0,0.0,33,0.00,,---,0.00,VWS V14.01,2013-05-21 00:48:00,
2013-05-20 17:53:00,66.6,36.6,28.14,SW,225,0.0,0.0,33,0.00,,---,0.00,VWS V14.01,2013-05-21 00:53:00,
2013-05-20 17:58:00,66.0,36.9,28.14,WSW,248,0.0,0.0,34,0.00,,---,0.00,VWS V14.01,2013-05-21 00:58:00,
2013-05-20 18:03:00,65.5,37.1,28.14,WSW,248,0.0,0.0,35,0.00,,---,0.00,VWS V14.01,2013-05-21 01:03:00,
2013-05-20 18:08:00,65.3,37.0,28.14,WSW,248,0.0,0.0,35,0.00,,---,0.00,VWS V14.01,2013-05-21 01:08:00,
2013-05-20 18:13:00,65.1,36.8,28.11,WNW,292,0.0,0.0,35,0.00,,---,0.00,VWS V14.01,2013-05-21 01:13:00,
2013-05-20 18:18:00,64.9,37.4,28.11,WSW,248,2.5,2.7,36,0.00,,---,0.00,VWS V14.01,2013-05-21 01:18:00,
2013-05-20 18:23:00,64.8,37.9,28.11,SSW,202,0.0,0.0,37,0.00,,---,0.00,VWS V14.01,2013-05-21 01:23:00,
2013-05-20 18:28:00,64.0,37.3,28.11,WSW,248,1.1,2.2,37,0.00,,---,0.00,VWS V14.01,2013-05-21 01:28:00,
2013-05-20 18:33:00,63.7,37.0,28.11,SW,225,0.0,0.0,37,0.00,,---,0.00,VWS V14.01,2013-05-21 01:33:00,
2013-05-20 18:38:00,63.3,37.3,28.11,WSW,248,0.0,0.0,38,0.00,,---,0.00,VWS V14.01,2013-05-21 01:38:00,
2013-05-20 18:43:00,63.1,37.1,28.11,WSW,248,0.0,0.0,38,0.00,,---,0.00,VWS V14.01,2013-05-21 01:43:00,
2013-05-20 18:48:00,63.0,37.6,28.11,WSW,248,0.0,0.0,39,0.00,,---,0.00,VWS V14.01,2013-05-21 01:48:00,
2013-05-20 18:53:00,63.0,38.3,28.11,SSW,202,0.0,0.0,40,0.00,,---,0.00,VWS V14.01,2013-05-21 01:53:00,
2013-05-20 18:58:00,63.0,38.3,28.11,SW,225,0.0,0.0,40,0.00,,---,0.00,VWS V14.01,2013-05-21 01:58:00,
2013-05-20 19:03:00,63.1,38.5,28.11,South,180,0.0,0.0,40,0.00,,---,0.00,VWS V14.01,2013-05-21 02:03:00,
2013-05-20 19:08:00,63.1,39.1,28.11,WNW,292,2.0,3.4,41,0.00,,---,0.00,VWS V14.01,2013-05-21 02:08:00,
2013-05-20 19:13:00,63.7,40.8,28.11,WNW,292,0.0,0.0,43,0.00,,---,0.00,VWS V14.01,2013-05-21 02:13:00,
2013-05-20 19:18:00,63.5,40.6,28.11,WSW,248,0.0,0.0,43,0.00,,---,0.00,VWS V14.01,2013-05-21 02:18:00,
2013-05-20 19:23:00,63.3,41.1,28.11,ENE,68,0.0,0.0,44,0.00,,---,0.00,VWS V14.01,2013-05-21 02:23:00,
2013-05-20 19:28:00,63.0,41.9,28.08,West,270,2.2,2.2,46,0.00,,---,0.00,VWS V14.01,2013-05-21 02:28:00,
2013-05-20 19:33:00,62.8,41.2,28.08,SW,225,0.0,0.0,45,0.00,,---,0.00,VWS V14.01,2013-05-21 02:33:00,
2013-05-20 19:38:00,62.4,40.8,28.08,SSW,202,0.0,0.0,45,0.00,,---,0.00,VWS V14.01,2013-05-21 02:38:00,
2013-05-20 19:43:00,62.2,40.1,28.08,WSW,248,0.0,0.0,44,0.00,,---,0.00,VWS V14.01,2013-05-21 02:43:00,
2013-05-20 19:48:00,62.4,40.8,28.08,SW,225,0.0,0.0,45,0.00,,---,0.00,VWS V14.01,2013-05-21 02:48:00,
2013-05-20 19:53:00,62.1,42.2,28.08,ESE,112,0.0,2.2,48,0.00,,---,0.00,VWS V14.01,2013-05-21 02:53:00,
2013-05-20 19:58:00,61.7,41.3,28.11,SW,225,0.0,0.0,47,0.00,,---,0.00,VWS V14.01,2013-05-21 02:58:00,
2013-05-20 20:03:00,61.3,40.4,28.11,SW,225,0.0,0.0,46,0.00,,---,0.00,VWS V14.01,2013-05-21 03:03:00,
2013-05-20 20:08:00,60.6,40.3,28.11,SW,225,0.0,0.0,47,0.00,,---,0.00,VWS V14.01,2013-05-21 03:08:00,
2013-05-20 20:13:00,60.3,39.4,28.08,SW,225,0.0,0.0,46,0.00,,---,0.00,VWS V14.01,2013-05-21 03:13:00,
2013-05-20 20:18:00,59.7,39.5,28.08,SW,225,0.0,0.0,47,0.00,,---,0.00,VWS V14.01,2013-05-21 03:18:00,
2013-05-20 20:23:00,59.5,39.3,28.08,SW,225,0.0,0.0,47,0.00,,---,0.00,VWS V14.01,2013-05-21 03:23:00,
2013-05-20 20:28:00,59.0,39.9,28.08,WSW,248,0.0,0.0,49,0.00,,---,0.00,VWS V14.01,2013-05-21 03:28:00,
2013-05-20 20:33:00,58.5,39.4,28.08,WSW,248,0.0,0.0,49,0.00,,---,0.00,VWS V14.01,2013-05-21 03:33:00,
2013-05-20 20:38:00,58.1,40.1,28.08,West,270,0.0,0.0,51,0.00,,---,0.00,VWS V14.01,2013-05-21 03:38:00,
2013-05-20 20:43:00,57.7,39.2,28.08,West,270,0.0,0.0,50,0.00,,---,0.00,VWS V14.01,2013-05-21 03:43:00,
2013-05-20 20:48:00,57.4,40.4,28.08,NE,45,0.0,0.0,53,0.00,,---,0.00,VWS V14.01,2013-05-21 03:48:00,
2013-05-20 20:53:00,57.0,39.6,28.08,NE,45,0.0,0.0,52,0.00,,---,0.00,VWS V14.01,2013-05-21 03:53:00,
2013-05-20 20:58:00,56.7,40.2,28.08,NE,45,0.0,0.0,54,0.00,,---,0.00,VWS V14.01,2013-05-21 03:58:00,
2013-05-20 21:01:00,56.7,40.2,28.08,NE,45,0.0,0.0,54,0.00,,---,0.00,VWS V14.01,2013-05-21 04:01:00,
2013-05-20 21:02:00,56.5,39.6,28.08,NE,45,0.0,0.0,53,0.00,,---,0.00,VWS V14.01,2013-05-21 04:02:00,
2013-05-20 21:07:00,56.1,40.2,28.08,WSW,248,0.9,1.1,55,0.00,,---,0.00,VWS V14.01,2013-05-21 04:07:00,
2013-05-20 21:12:00,55.8,39.8,28.08,WNW,292,0.0,0.0,55,0.00,,---,0.00,VWS V14.01,2013-05-21 04:12:00,
2013-05-20 21:17:00,55.0,39.7,28.08,WNW,292,0.0,0.0,56,0.00,,---,0.00,VWS V14.01,2013-05-21 04:17:00,
2013-05-20 21:22:00,54.7,39.3,28.08,WNW,292,0.0,0.0,56,0.00,,---,0.00,VWS V14.01,2013-05-21 04:22:00,
2013-05-20 21:27:00,54.3,39.0,28.08,WNW,292,0.0,0.0,56,0.00,,---,0.00,VWS V14.01,2013-05-21 04:27:00,
2013-05-20 21:32:00,53.8,38.9,28.08,WNW,292,0.0,0.0,57,0.00,,---,0.00,VWS V14.01,2013-05-21 04:32:00,
2013-05-20 21:37:00,53.4,39.0,28.08,NW,315,0.0,0.0,58,0.00,,---,0.00,VWS V14.01,2013-05-21 04:37:00,
2013-05-20 21:42:00,53.2,39.3,28.08,NW,315,0.0,0.0,59,0.00,,---,0.00,VWS V14.01,2013-05-21 04:42:00,
2013-05-20 21:47:00,52.9,39.0,28.08,NW,315,0.0,0.0,59,0.00,,---,0.00,VWS V14.01,2013-05-21 04:47:00,
2013-05-20 21:52:00,52.3,38.9,28.08,NW,315,0.0,0.0,60,0.00,,---,0.00,VWS V14.01,2013-05-21 04:52:00,
2013-05-20 21:57:00,52.0,38.5,28.08,NW,315,0.0,0.0,60,0.00,,---,0.00,VWS V14.01,2013-05-21 04:57:00,
2013-05-20 22:02:00,51.6,39.0,28.08,NW,315,0.0,0.0,62,0.00,,---,0.00,VWS V14.01,2013-05-21 05:02:00,
2013-05-20 22:07:00,51.6,39.0,28.08,NW,315,0.0,0.0,62,0.00,,---,0.00,VWS V14.01,2013-05-21 05:07:00,
2013-05-20 22:12:00,51.4,38.9,28.08,NW,315,0.0,0.0,62,0.00,,---,0.00,VWS V14.01,2013-05-21 05:12:00,
2013-05-20 22:17:00,51.4,38.9,28.08,NW,315,0.0,0.0,62,0.00,,---,0.00,VWS V14.01,2013-05-21 05:17:00,
2013-05-20 22:22:00,51.3,39.5,28.08,NW,315,0.0,0.0,64,0.00,,---,0.00,VWS V14.01,2013-05-21 05:22:00,
2013-05-20 22:27:00,51.3,39.9,28.08,NW,315,0.0,0.0,65,0.00,,---,0.00,VWS V14.01,2013-05-21 05:27:00,
2013-05-20 22:32:00,50.9,39.6,28.08,NW,315,0.0,0.0,65,0.00,,---,0.00,VWS V14.01,2013-05-21 05:32:00,
2013-05-20 22:38:00,50.7,39.8,28.08,NW,315,0.0,0.0,66,0.00,,---,0.00,VWS V14.01,2013-05-21 05:38:00,
2013-05-20 22:43:00,50.5,39.6,28.08,NW,315,0.0,0.0,66,0.00,,---,0.00,VWS V14.01,2013-05-21 05:43:00,
2013-05-20 22:48:00,50.2,39.3,28.08,NW,315,0.0,0.0,66,0.00,,---,0.00,VWS V14.01,2013-05-21 05:48:00,
2013-05-20 22:53:00,50.2,39.7,28.08,NW,315,0.0,0.0,67,0.00,,---,0.00,VWS V14.01,2013-05-21 05:53:00,
2013-05-20 22:58:00,49.8,39.3,28.05,NW,315,0.0,0.0,67,0.00,,---,0.00,VWS V14.01,2013-05-21 05:58:00,
2013-05-20 23:03:00,49.6,39.5,28.05,NW,315,0.0,0.0,68,0.00,,---,0.00,VWS V14.01,2013-05-21 06:03:00,
2013-05-20 23:08:00,49.6,39.5,28.05,NW,315,0.0,0.0,68,0.00,,---,0.00,VWS V14.01,2013-05-21 06:08:00,
2013-05-20 23:13:00,49.6,39.9,28.05,NW,315,0.0,0.0,69,0.00,,---,0.00,VWS V14.01,2013-05-21 06:13:00,
2013-05-20 23:18:00,49.6,39.9,28.05,NW,315,0.0,0.0,69,0.00,,---,0.00,VWS V14.01,2013-05-21 06:18:00,
2013-05-20 23:23:00,49.5,39.7,28.05,NW,315,0.0,0.0,69,0.00,,---,0.00,VWS V14.01,2013-05-21 06:23:00,
2013-05-20 23:28:00,49.5,40.1,28.05,NW,315,0.0,0.0,70,0.00,,---,0.00,VWS V14.01,2013-05-21 06:28:00,
2013-05-20 23:33:00,49.5,39.7,28.05,NW,315,0.0,0.0,69,0.00,,---,0.00,VWS V14.01,2013-05-21 06:33:00,
2013-05-20 23:38:00,49.5,40.1,28.05,NW,315,0.0,0.0,70,0.00,,---,0.00,VWS V14.01,2013-05-21 06:38:00,
2013-05-20 23:43:00,49.3,39.9,28.05,NW,315,0.0,0.0,70,0.00,,---,0.00,VWS V14.01,2013-05-21 06:43:00,
2013-05-20 23:48:00,49.1,39.8,28.05,NW,315,0.0,0.0,70,0.00,,---,0.00,VWS V14.01,2013-05-21 06:48:00,
2013-05-20 23:53:00,48.7,39.8,28.05,NW,315,0.0,0.0,71,0.00,,---,0.00,VWS V14.01,2013-05-21 06:53:00,
2013-05-20 23:58:00,48.6,39.6,28.05,NW,315,0.0,0.0,71,0.00,,---,0.00,VWS V14.01,2013-05-21 06:58:00,